Time;durP1;ratioP1;P1;durP2;ratioP2;P2;SDS_P1;SDS_P2;PMS_P1;PMS_P2;Temp;Humidity;BMP_temperature;BMP_pressure;BME280_temperature;BME280_humidity;BME280_pressure;Samples;Min_cycle;Max_cycle;Signal;HPM_P1;HPM_P2
2024/04/09 00:02:20;;;;;;;6.63;4.38;;;26.20;46.60;;;;;;5498044;26;20010;-61
2024/04/09 00:04:45;;;;;;;6.75;4.57;;;26.20;46.60;;;;;;5501268;26;20102;-61
2024/04/09 00:07:11;;;;;;;5.93;4.28;;;26.20;46.60;;;;;;5499769;26;20008;-61
2024/04/09 00:09:42;;;;;;;7.07;4.95;;;26.20;47.20;;;;;;5496004;26;20673;-61
2024/04/09 00:12:12;;;;;;;6.55;4.18;;;26.10;46.60;;;;;;5470075;26;20478;-62
2024/04/09 00:14:38;;;;;;;6.78;4.75;;;26.20;46.70;;;;;;5499662;26;20001;-62
2024/04/09 00:17:06;;;;;;;6.50;4.40;;;26.10;46.60;;;;;;5498144;26;20003;-61
2024/04/09 00:19:32;;;;;;;5.13;4.15;;;26.10;46.70;;;;;;5500977;26;20021;-62
2024/04/09 00:21:59;;;;;;;5.68;4.18;;;26.10;46.70;;;;;;5498667;26;20036;-61
2024/04/09 00:24:25;;;;;;;6.80;4.38;;;26.10;46.70;;;;;;5497597;26;20006;-61
2024/04/09 00:26:51;;;;;;;6.53;4.60;;;26.10;46.70;;;;;;5496532;26;20418;-61
2024/04/09 00:29:17;;;;;;;5.68;4.22;;;26.10;46.70;;;;;;5497326;26;20009;-61
2024/04/09 00:31:43;;;;;;;6.40;4.30;;;26.10;47.20;;;;;;5499667;26;20432;-62
2024/04/09 00:34:10;;;;;;;5.93;4.10;;;26.10;46.70;;;;;;5499685;26;20350;-61
2024/04/09 00:36:36;;;;;;;6.65;4.40;;;26.10;46.70;;;;;;5500873;26;20086;-61
2024/04/09 00:39:03;;;;;;;5.70;3.95;;;26.10;47.30;;;;;;5500740;26;20449;-61
2024/04/09 00:41:29;;;;;;;6.30;4.57;;;26.10;46.80;;;;;;5496916;26;20030;-61
2024/04/09 00:43:55;;;;;;;5.95;4.25;;;26.10;46.80;;;;;;5498764;26;19998;-61
2024/04/09 00:46:21;;;;;;;5.45;4.13;;;26.00;46.70;;;;;;5496215;26;20049;-61
2024/04/09 00:48:47;;;;;;;5.32;3.92;;;26.00;46.70;;;;;;5468402;26;20322;-63
2024/04/09 00:51:16;;;;;;;7.07;4.55;;;26.00;46.70;;;;;;5498659;26;19994;-63
2024/04/09 00:53:43;;;;;;;6.43;4.10;;;26.00;46.70;;;;;;5500679;26;20004;-63
2024/04/09 00:56:09;;;;;;;6.30;4.30;;;26.00;46.70;;;;;;5496886;26;19998;-63
2024/04/09 00:58:34;;;;;;;5.65;4.22;;;26.00;46.80;;;;;;5497073;26;19995;-61
2024/04/09 01:01:01;;;;;;;6.53;4.63;;;26.00;46.80;;;;;;5496789;26;20450;-62
2024/04/09 01:03:27;;;;;;;6.72;4.30;;;26.00;46.80;;;;;;5502107;26;19997;-61
2024/04/09 01:05:53;;;;;;;6.22;4.03;;;26.00;46.80;;;;;;5500002;26;20006;-61
2024/04/09 01:08:19;;;;;;;5.57;3.92;;;26.00;46.80;;;;;;5496515;26;20097;-61
2024/04/09 01:10:45;;;;;;;5.85;4.38;;;26.00;46.80;;;;;;5493457;26;19993;-61
2024/04/09 01:13:10;;;;;;;5.40;4.30;;;26.00;46.80;;;;;;5496595;26;20009;-61
2024/04/09 01:15:36;;;;;;;5.25;4.22;;;26.00;46.80;;;;;;5496129;26;20013;-61
2024/04/09 01:18:03;;;;;;;6.75;4.18;;;25.90;46.70;;;;;;5499081;26;20170;-62
2024/04/09 01:20:28;;;;;;;5.70;4.05;;;25.90;46.80;;;;;;5466514;26;19994;-62
2024/04/09 01:22:54;;;;;;;5.95;4.35;;;25.90;46.80;;;;;;5498652;26;20453;-61
2024/04/09 01:25:21;;;;;;;5.90;4.50;;;25.90;46.80;;;;;;5496851;26;20006;-61
2024/04/09 01:27:46;;;;;;;6.07;4.30;;;25.90;46.80;;;;;;5498343;26;20006;-61
2024/04/09 01:30:13;;;;;;;5.47;4.13;;;25.90;46.80;;;;;;5492784;26;20069;-61
2024/04/09 01:32:44;;;;;;;5.57;4.25;;;25.90;46.80;;;;;;5498715;26;20413;-60
2024/04/09 01:35:10;;;;;;;6.10;4.20;;;25.90;46.80;;;;;;5499680;26;20025;-61
2024/04/09 01:37:39;;;;;;;6.43;4.35;;;25.90;46.80;;;;;;5500034;26;20041;-62
2024/04/09 01:40:05;;;;;;;;;;;25.90;46.80;;;;;;5500020;26;20006;-63
2024/04/09 01:42:31;;;;;;;6.32;4.47;;;25.90;46.80;;;;;;5497427;26;19931;-63
2024/04/09 01:44:57;;;;;;;5.32;4.13;;;25.90;46.80;;;;;;5500958;26;19994;-63
2024/04/09 01:47:22;;;;;;;5.68;4.35;;;25.90;46.80;;;;;;5469328;26;20458;-63
2024/04/09 01:49:48;;;;;;;6.65;4.55;;;25.90;46.80;;;;;;5502413;26;20483;-63
2024/04/09 01:52:14;;;;;;;6.38;4.18;;;25.90;46.80;;;;;;5502600;26;19994;-63
2024/04/09 01:54:44;;;;;;;6.30;4.38;;;25.80;47.30;;;;;;5500204;26;20038;-63
2024/04/09 01:57:10;;;;;;;6.88;4.05;;;25.80;46.80;;;;;;5500009;26;20002;-63
2024/04/09 01:59:36;;;;;;;6.43;4.38;;;25.80;46.80;;;;;;5501753;26;20165;-63
2024/04/09 02:02:02;;;;;;;5.80;3.92;;;25.80;46.80;;;;;;5502551;26;20467;-63
2024/04/09 02:04:27;;;;;;;4.80;3.65;;;25.80;46.80;;;;;;5500591;26;20043;-63
2024/04/09 02:06:53;;;;;;;5.32;3.95;;;25.80;46.90;;;;;;5501054;26;20071;-63
2024/04/09 02:09:19;;;;;;;5.47;4.20;;;25.80;46.90;;;;;;5500268;26;20002;-62
2024/04/09 02:11:45;;;;;;;6.45;4.75;;;25.80;46.80;;;;;;5500152;26;20112;-63
2024/04/09 02:14:10;;;;;;;6.70;4.65;;;25.80;46.80;;;;;;5503843;26;19994;-63
2024/04/09 02:16:36;;;;;;;5.43;3.90;;;25.80;46.90;;;;;;5500606;26;19993;-63
2024/04/09 02:19:03;;;;;;;5.90;3.95;;;25.80;46.80;;;;;;5500221;26;19998;-61
2024/04/09 02:21:31;;;;;;;5.47;3.88;;;25.80;46.90;;;;;;5498268;26;20378;-61
2024/04/09 02:23:56;;;;;;;5.15;3.95;;;25.80;46.90;;;;;;5502024;26;19998;-60
2024/04/09 02:26:24;;;;;;;5.88;4.10;;;25.80;46.90;;;;;;5497102;26;20009;-61
2024/04/09 02:28:50;;;;;;;5.70;4.07;;;25.80;46.90;;;;;;5503393;26;20681;-61
2024/04/09 02:31:16;;;;;;;5.40;3.88;;;25.80;46.90;;;;;;5501592;26;20395;-61
2024/04/09 02:33:42;;;;;;;5.53;3.88;;;25.80;47.40;;;;;;5470680;26;20073;-61
2024/04/09 02:36:11;;;;;;;5.53;4.07;;;25.80;46.90;;;;;;5502588;26;20002;-61
2024/04/09 02:38:37;;;;;;;;;;;25.80;46.90;;;;;;5502072;26;20124;-61
2024/04/09 02:41:05;;;;;;;5.57;4.10;;;25.70;46.90;;;;;;5498920;26;20031;-62
2024/04/09 02:43:31;;;;;;;5.75;4.07;;;25.70;46.90;;;;;;5502584;26;20452;-61
2024/04/09 02:45:58;;;;;;;5.57;3.83;;;25.70;46.90;;;;;;5502736;26;20458;-61
2024/04/09 02:48:24;;;;;;;5.25;4.03;;;25.70;46.90;;;;;;5501414;26;20005;-61
2024/04/09 02:50:58;;;;;;;5.20;4.15;;;25.70;46.90;;;;;;5501616;26;19993;-61
2024/04/09 02:53:24;;;;;;;5.18;3.70;;;25.70;46.90;;;;;;5502572;26;21313;-61
2024/04/09 02:56:04;;;;;;;5.90;3.75;;;25.70;46.90;;;;;;5495941;26;19997;-61
2024/04/09 02:58:31;;;;;;;5.32;4.03;;;25.70;46.90;;;;;;5498088;26;20001;-61
2024/04/09 03:01:04;;;;;;;5.75;3.80;;;25.70;46.90;;;;;;5499873;26;21797;-61
2024/04/09 03:03:30;;;;;;;5.53;3.80;;;25.70;46.90;;;;;;5502191;26;20045;-61
2024/04/09 03:05:56;;;;;;;5.35;3.60;;;25.70;46.90;;;;;;5499121;26;20075;-61
2024/04/09 03:08:22;;;;;;;5.13;3.55;;;25.70;47.00;;;;;;5469823;26;20010;-61
2024/04/09 03:10:48;;;;;;;4.88;3.60;;;25.60;46.90;;;;;;5498931;26;20026;-62
2024/04/09 03:13:13;;;;;;;5.00;3.58;;;25.60;46.90;;;;;;5500007;26;20013;-61
2024/04/09 03:15:39;;;;;;;4.72;3.70;;;25.60;46.90;;;;;;5497634;26;20458;-62
2024/04/09 03:18:05;;;;;;;5.05;3.55;;;25.60;46.90;;;;;;5501241;26;20018;-62
2024/04/09 03:20:30;;;;;;;4.93;3.58;;;25.60;46.90;;;;;;5501485;26;20081;-61
2024/04/09 03:22:56;;;;;;;4.60;3.70;;;25.60;46.90;;;;;;5506465;26;20001;-61
2024/04/09 03:25:21;;;;;;;5.03;3.80;;;25.60;46.90;;;;;;5500704;26;19998;-61
2024/04/09 03:27:47;;;;;;;5.25;3.63;;;25.60;46.90;;;;;;5497393;26;20338;-61
2024/04/09 03:30:13;;;;;;;5.63;3.72;;;25.60;46.90;;;;;;5495106;26;20074;-61
2024/04/09 03:32:39;;;;;;;4.78;3.50;;;25.60;47.00;;;;;;5497974;26;20016;-61
2024/04/09 03:35:05;;;;;;;5.05;3.75;;;25.60;47.00;;;;;;5501153;26;20442;-61
2024/04/09 03:37:31;;;;;;;5.38;3.45;;;25.60;47.00;;;;;;5500262;26;20033;-61
2024/04/09 03:39:56;;;;;;;4.80;3.50;;;25.60;47.00;;;;;;5500401;26;20012;-63
2024/04/09 03:42:22;;;;;;;4.35;3.40;;;25.50;46.90;;;;;;5494321;26;19997;-63
2024/04/09 03:44:48;;;;;;;4.80;3.40;;;25.60;47.00;;;;;;5499965;26;20333;-63
2024/04/09 03:47:14;;;;;;;5.30;3.97;;;25.50;47.00;;;;;;5499158;26;20009;-63
2024/04/09 03:49:39;;;;;;;4.90;3.65;;;25.50;46.90;;;;;;5467688;26;20006;-60
2024/04/09 03:52:06;;;;;;;5.03;3.60;;;25.50;47.00;;;;;;5493885;26;20001;-60
2024/04/09 03:54:32;;;;;;;4.53;3.47;;;25.50;47.00;;;;;;5491893;26;20406;-61
2024/04/09 03:57:03;;;;;;;5.07;3.40;;;25.50;47.00;;;;;;5496461;26;19998;-60
2024/04/09 03:59:32;;;;;;;4.00;3.20;;;25.50;47.00;;;;;;5501293;26;20026;-60
2024/04/09 04:01:58;;;;;;;4.82;3.40;;;25.50;47.00;;;;;;5499734;26;20002;-60
2024/04/09 04:04:23;;;;;;;4.95;3.70;;;25.50;47.00;;;;;;5503225;26;20033;-60
2024/04/09 04:06:49;;;;;;;4.35;3.47;;;25.50;47.00;;;;;;5497413;26;19997;-60
2024/04/09 04:09:15;;;;;;;4.88;3.25;;;25.50;47.00;;;;;;5501945;26;20002;-61
2024/04/09 04:11:41;;;;;;;5.05;3.75;;;25.50;47.10;;;;;;5496884;26;20107;-60
2024/04/09 04:14:07;;;;;;;5.25;3.40;;;25.50;47.10;;;;;;5471434;26;20445;-60
2024/04/09 04:16:33;;;;;;;4.55;3.33;;;25.50;47.10;;;;;;5500692;26;20014;-60
2024/04/09 04:18:58;;;;;;;5.03;3.55;;;25.50;47.10;;;;;;5500172;26;20009;-60
2024/04/09 04:21:25;;;;;;;4.82;3.47;;;25.50;47.10;;;;;;5499812;26;19994;-60
2024/04/09 04:23:54;;;;;;;5.13;3.55;;;25.50;47.20;;;;;;5498520;26;20006;-61
2024/04/09 04:26:24;;;;;;;5.53;3.35;;;25.40;47.10;;;;;;5494123;26;20002;-61
2024/04/09 04:28:50;;;;;;;5.07;3.40;;;25.40;47.10;;;;;;5497909;26;20013;-61
2024/04/09 04:31:26;;;;;;;5.18;3.58;;;25.40;47.10;;;;;;5498944;26;20038;-61
2024/04/09 04:33:51;;;;;;;4.43;3.13;;;25.40;47.10;;;;;;5500019;26;20001;-61
2024/04/09 04:36:18;;;;;;;4.03;2.97;;;25.50;47.10;;;;;;5500799;26;20346;-61
2024/04/09 04:38:45;;;;;;;4.65;3.10;;;25.40;47.00;;;;;;5500147;26;20441;-61
2024/04/09 04:41:11;;;;;;;5.20;3.60;;;25.40;47.00;;;;;;5499021;26;20006;-61
2024/04/09 04:43:38;;;;;;;4.65;3.30;;;25.40;47.00;;;;;;5500379;26;20017;-61
2024/04/09 04:46:04;;;;;;;4.03;3.00;;;25.40;47.10;;;;;;5497470;26;20001;-61
2024/04/09 04:48:30;;;;;;;4.38;3.10;;;25.40;47.00;;;;;;5499225;26;20369;-61
2024/04/09 04:50:56;;;;;;;4.57;3.10;;;25.40;47.10;;;;;;5500810;26;20010;-64
2024/04/09 04:53:22;;;;;;;4.32;3.00;;;25.40;47.00;;;;;;5496355;26;20527;-64
2024/04/09 04:55:51;;;;;;;4.50;3.20;;;25.40;47.10;;;;;;5496130;26;20006;-64
2024/04/09 04:58:19;;;;;;;4.60;3.10;;;25.40;47.00;;;;;;5495083;26;20008;-63
2024/04/09 05:00:45;;;;;;;5.10;3.25;;;25.40;47.00;;;;;;5496717;26;20004;-61
2024/04/09 05:03:11;;;;;;;5.28;3.50;;;25.40;47.10;;;;;;5496041;26;20163;-62
2024/04/09 05:05:37;;;;;;;4.43;2.92;;;25.40;47.10;;;;;;5494242;26;19998;-62
2024/04/09 05:08:03;;;;;;;4.93;3.25;;;25.40;47.10;;;;;;5496824;26;20034;-62
2024/04/09 05:10:29;;;;;;;4.45;3.15;;;25.40;47.10;;;;;;5498441;26;20012;-62
2024/04/09 05:12:55;;;;;;;4.30;2.90;;;25.40;47.10;;;;;;5497784;26;20002;-62
2024/04/09 05:15:22;;;;;;;4.72;3.25;;;25.40;47.10;;;;;;5498635;26;20003;-62
2024/04/09 05:17:48;;;;;;;4.32;2.97;;;25.30;47.10;;;;;;5501039;26;20005;-63
2024/04/09 05:20:16;;;;;;;5.32;3.22;;;25.40;47.10;;;;;;5503832;26;20005;-62
2024/04/09 05:22:44;;;;;;;4.20;2.90;;;25.40;47.10;;;;;;5503790;26;20461;-62
2024/04/09 05:25:11;;;;;;;5.47;3.25;;;25.30;47.10;;;;;;5503379;26;19994;-62
2024/04/09 05:27:37;;;;;;;4.43;3.08;;;25.30;47.10;;;;;;5496579;26;20438;-62
2024/04/09 05:30:03;;;;;;;4.90;3.30;;;25.30;47.10;;;;;;5500796;26;20018;-62
2024/04/09 05:32:29;;;;;;;4.68;3.13;;;25.30;47.10;;;;;;5503053;26;19993;-62
2024/04/09 05:34:55;;;;;;;4.22;3.10;;;25.30;47.10;;;;;;5503413;26;20005;-62
2024/04/09 05:37:22;;;;;;;4.93;3.00;;;25.30;47.30;;;;;;5501651;26;20006;-62
2024/04/09 05:39:48;;;;;;;4.68;3.03;;;25.30;47.40;;;;;;5503187;26;20009;-63
2024/04/09 05:42:16;;;;;;;4.97;3.05;;;25.30;47.30;;;;;;5466923;26;19990;-63
2024/04/09 05:44:42;;;;;;;4.47;3.35;;;25.30;47.20;;;;;;5497166;26;20454;-62
2024/04/09 05:47:08;;;;;;;4.93;2.95;;;25.30;47.20;;;;;;5503288;26;20012;-63
2024/04/09 05:49:34;;;;;;;4.68;2.78;;;25.30;47.20;;;;;;5501828;26;20010;-62
2024/04/09 05:52:00;;;;;;;5.35;3.28;;;25.30;47.20;;;;;;5502427;26;20359;-62
2024/04/09 05:54:26;;;;;;;4.28;2.95;;;25.30;47.20;;;;;;5501189;26;20019;-62
2024/04/09 05:56:52;;;;;;;4.35;2.88;;;25.30;47.20;;;;;;5501979;26;20473;-62
2024/04/09 05:59:18;;;;;;;5.53;3.00;;;25.20;47.10;;;;;;5500519;26;20017;-64
2024/04/09 06:01:44;;;;;;;4.95;3.08;;;25.30;47.20;;;;;;5500260;26;19998;-64
2024/04/09 06:04:09;;;;;;;4.60;3.30;;;25.20;47.10;;;;;;5502551;26;20814;-64
2024/04/09 06:06:35;;;;;;;4.07;2.83;;;25.20;47.10;;;;;;5499531;26;19998;-64
2024/04/09 06:09:01;;;;;;;3.95;2.70;;;25.20;47.10;;;;;;5500660;26;20417;-64
2024/04/09 06:11:27;;;;;;;5.13;3.00;;;25.30;47.20;;;;;;5502707;26;20533;-64
2024/04/09 06:13:56;;;;;;;3.53;2.38;;;25.20;47.20;;;;;;5495688;26;20009;-64
2024/04/09 06:16:21;;;;;;;5.32;3.45;;;25.20;47.10;;;;;;5500384;26;20015;-64
2024/04/09 06:18:48;;;;;;;4.30;2.90;;;25.20;47.10;;;;;;5498482;26;19998;-64
2024/04/09 06:21:13;;;;;;;4.68;2.80;;;25.20;47.10;;;;;;5500591;26;20013;-62
2024/04/09 06:23:39;;;;;;;4.18;2.60;;;25.20;47.70;;;;;;5500656;26;20525;-63
2024/04/09 06:26:05;;;;;;;5.07;2.80;;;25.20;47.20;;;;;;5501090;26;19994;-63
2024/04/09 06:28:32;;;;;;;4.10;2.80;;;25.20;47.20;;;;;;5503434;26;20069;-62
2024/04/09 06:30:58;;;;;;;5.05;2.90;;;25.20;47.20;;;;;;5502793;26;20009;-62
2024/04/09 06:33:25;;;;;;;4.22;2.92;;;25.20;47.20;;;;;;5501564;26;20377;-62
2024/04/09 06:35:51;;;;;;;4.13;2.55;;;25.20;47.20;;;;;;5473147;26;20089;-63
2024/04/09 06:38:17;;;;;;;4.47;2.70;;;25.20;47.20;;;;;;5497650;26;20465;-62
2024/04/09 06:40:43;;;;;;;4.22;2.85;;;25.20;47.20;;;;;;5494833;26;20032;-62
2024/04/09 06:43:10;;;;;;;4.90;3.00;;;25.10;47.20;;;;;;5498077;26;20005;-62
2024/04/09 06:45:36;;;;;;;5.50;2.88;;;25.20;47.80;;;;;;5501537;26;20350;-62
2024/04/09 06:48:01;;;;;;;4.88;3.35;;;25.20;47.20;;;;;;5500506;26;20018;-62
2024/04/09 06:50:27;;;;;;;5.53;3.30;;;25.10;47.20;;;;;;5502482;26;19993;-62
2024/04/09 06:52:53;;;;;;;4.07;2.72;;;25.20;47.20;;;;;;5500433;26;19994;-62
2024/04/09 06:55:19;;;;;;;4.05;2.67;;;25.10;47.20;;;;;;5501272;26;20554;-62
2024/04/09 06:57:46;;;;;;;3.80;2.63;;;25.10;47.20;;;;;;5498842;26;19993;-62
2024/04/09 07:00:14;;;;;;;4.72;2.90;;;25.10;47.70;;;;;;5501691;26;20405;-63
2024/04/09 07:02:40;;;;;;;4.38;2.70;;;25.10;47.20;;;;;;5496854;26;19993;-63
2024/04/09 07:05:07;;;;;;;5.20;3.00;;;25.10;47.20;;;;;;5502340;26;19997;-62
2024/04/09 07:07:34;;;;;;;4.18;2.67;;;25.10;47.70;;;;;;5501381;26;20001;-62
2024/04/09 07:10:00;;;;;;;4.50;2.80;;;25.10;47.20;;;;;;5500964;26;20069;-64
2024/04/09 07:12:27;;;;;;;4.35;2.97;;;25.10;47.20;;;;;;5500858;26;20066;-64
2024/04/09 07:14:53;;;;;;;3.97;2.83;;;25.10;47.20;;;;;;5500938;26;20065;-64
2024/04/09 07:17:19;;;;;;;3.83;2.67;;;25.10;47.30;;;;;;5499132;26;20403;-64
2024/04/09 07:19:45;;;;;;;4.10;2.65;;;25.10;47.30;;;;;;5496564;26;19997;-64
2024/04/09 07:22:11;;;;;;;4.20;2.70;;;25.10;47.30;;;;;;5500712;26;20067;-64
2024/04/09 07:24:36;;;;;;;4.38;2.72;;;25.10;47.30;;;;;;5500135;26;20499;-64
2024/04/09 07:27:02;;;;;;;3.95;2.60;;;25.10;47.30;;;;;;5499087;26;20062;-64
2024/04/09 07:29:28;;;;;;;4.85;2.75;;;25.10;47.30;;;;;;5501865;26;20009;-62
2024/04/09 07:31:54;;;;;;;3.42;2.33;;;25.10;47.30;;;;;;5499044;26;19998;-62
2024/04/09 07:34:20;;;;;;;5.63;2.80;;;25.10;47.30;;;;;;5498492;26;20077;-62
2024/04/09 07:36:46;;;;;;;4.10;2.63;;;25.10;47.30;;;;;;5501357;26;20363;-61
2024/04/09 07:39:14;;;;;;;4.35;2.60;;;25.10;47.30;;;;;;5501583;26;20342;-62
2024/04/09 07:41:41;;;;;;;3.53;2.50;;;25.00;47.20;;;;;;5503365;26;20446;-62
2024/04/09 07:44:07;;;;;;;4.07;2.50;;;25.10;47.30;;;;;;5497196;26;19993;-62
2024/04/09 07:46:33;;;;;;;4.00;2.55;;;25.00;47.20;;;;;;5502125;26;20399;-61
2024/04/09 07:49:04;;;;;;;3.92;2.70;;;25.10;47.30;;;;;;5499274;26;20013;-62
2024/04/09 07:51:30;;;;;;;4.45;2.80;;;25.10;47.30;;;;;;5496657;26;20005;-61
2024/04/09 07:53:56;;;;;;;3.55;2.67;;;25.00;47.30;;;;;;5500278;26;20001;-62
2024/04/09 07:56:22;;;;;;;4.00;2.67;;;25.00;47.30;;;;;;5496588;26;20453;-62
2024/04/09 07:58:47;;;;;;;3.92;2.70;;;25.00;47.30;;;;;;5497867;26;20074;-62
2024/04/09 08:01:13;;;;;;;3.38;2.30;;;25.00;47.30;;;;;;5500361;26;19998;-61
2024/04/09 08:03:39;;;;;;;4.50;2.90;;;25.00;47.30;;;;;;5466437;26;20007;-62
2024/04/09 08:06:06;;;;;;;3.13;2.40;;;25.00;47.30;;;;;;5499497;26;19990;-61
2024/04/09 08:08:32;;;;;;;5.22;2.83;;;25.00;47.30;;;;;;5499500;26;19993;-62
2024/04/09 08:10:58;;;;;;;4.38;2.90;;;25.00;47.30;;;;;;5497232;26;19990;-62
2024/04/09 08:13:24;;;;;;;3.75;2.53;;;25.00;47.30;;;;;;5494452;26;20023;-62
2024/04/09 08:15:52;;;;;;;4.40;2.80;;;25.00;47.30;;;;;;5501122;26;20016;-62
2024/04/09 08:18:18;;;;;;;5.70;2.78;;;25.00;47.30;;;;;;5499628;26;20103;-62
2024/04/09 08:20:44;;;;;;;3.80;2.60;;;25.00;47.30;;;;;;5501622;26;20033;-62
2024/04/09 08:23:10;;;;;;;3.72;2.47;;;25.00;47.30;;;;;;5501148;26;20550;-62
2024/04/09 08:25:36;;;;;;;4.43;2.80;;;25.00;47.30;;;;;;5500474;26;20006;-63
2024/04/09 08:28:02;;;;;;;3.70;2.30;;;24.90;47.30;;;;;;5495879;26;20005;-62
2024/04/09 08:30:28;;;;;;;3.75;2.47;;;25.00;47.30;;;;;;5498072;26;20033;-64
2024/04/09 08:32:54;;;;;;;4.63;2.65;;;25.00;47.30;;;;;;5498982;26;19997;-64
2024/04/09 08:35:21;;;;;;;3.70;2.40;;;25.00;47.30;;;;;;5501094;26;20029;-64
2024/04/09 08:37:47;;;;;;;3.53;2.50;;;24.90;47.30;;;;;;5498355;26;19998;-64
2024/04/09 08:40:17;;;;;;;4.05;2.80;;;25.00;47.30;;;;;;5502863;26;19997;-61
2024/04/09 08:42:44;;;;;;;3.90;2.60;;;24.90;47.30;;;;;;5498168;26;20001;-62
2024/04/09 08:45:14;;;;;;;4.10;2.50;;;24.90;47.30;;;;;;5499254;26;20017;-62
2024/04/09 08:47:43;;;;;;;4.28;2.60;;;25.00;47.40;;;;;;5501962;26;20408;-62
2024/04/09 08:50:09;;;;;;;3.70;2.17;;;24.90;47.30;;;;;;5504164;26;19997;-62
2024/04/09 08:52:35;;;;;;;4.03;2.38;;;24.90;47.30;;;;;;5501413;26;19998;-61
2024/04/09 08:55:05;;;;;;;4.10;2.72;;;24.90;47.30;;;;;;5499394;26;20042;-62
2024/04/09 08:57:31;;;;;;;3.63;2.45;;;24.90;47.30;;;;;;5502737;26;20045;-62
2024/04/09 08:59:57;;;;;;;4.00;2.63;;;24.90;47.40;;;;;;5497345;26;20021;-62
2024/04/09 09:02:23;;;;;;;4.15;2.63;;;24.90;47.40;;;;;;5505355;26;20104;-62
2024/04/09 09:04:49;;;;;;;4.10;2.38;;;24.90;47.30;;;;;;5502522;26;20029;-62
2024/04/09 09:07:19;;;;;;;4.20;2.78;;;24.90;47.30;;;;;;5503759;26;20010;-62
2024/04/09 09:09:47;;;;;;;3.50;2.50;;;24.90;47.30;;;;;;5503954;26;20037;-62
2024/04/09 09:12:13;;;;;;;4.32;2.50;;;24.90;47.40;;;;;;5501928;26;20078;-62
2024/04/09 09:14:47;;;;;;;3.78;2.30;;;24.90;47.40;;;;;;5500383;26;20011;-62
2024/04/09 09:17:13;;;;;;;3.63;2.45;;;24.90;47.40;;;;;;5502133;26;20461;-62
2024/04/09 09:19:39;;;;;;;4.18;2.47;;;24.90;47.40;;;;;;5502185;26;20002;-62
2024/04/09 09:22:07;;;;;;;3.50;2.38;;;24.90;47.40;;;;;;5504011;26;19997;-61
2024/04/09 09:24:34;;;;;;;3.60;2.38;;;24.90;47.40;;;;;;5442908;26;20061;-62
2024/04/09 09:27:10;;;;;;;3.42;2.30;;;24.90;47.40;;;;;;5501062;26;19997;-62
2024/04/09 09:29:36;;;;;;;3.67;2.20;;;24.80;47.30;;;;;;5499038;26;19997;-61
2024/04/09 09:32:03;;;;;;;3.00;2.20;;;24.80;47.40;;;;;;5505200;26;20537;-61
2024/04/09 09:34:43;;;;;;;3.95;2.60;;;24.90;47.40;;;;;;5499328;26;20002;-61
2024/04/09 09:37:10;;;;;;;3.35;2.33;;;24.90;47.40;;;;;;5501414;26;20487;-62
2024/04/09 09:39:39;;;;;;;3.22;2.20;;;24.90;47.40;;;;;;5500781;26;20349;-64
2024/04/09 09:42:12;;;;;;;;;;;24.80;47.40;;;;;;5502267;26;20077;-64
2024/04/09 09:44:40;;;;;;;4.32;2.33;;;24.90;47.40;;;;;;5498496;26;19924;-64
2024/04/09 09:47:06;;;;;;;3.28;2.30;;;24.90;47.40;;;;;;5499740;26;19998;-64
2024/04/09 09:49:34;;;;;;;3.72;2.55;;;24.90;47.40;;;;;;5501322;26;20046;-62
2024/04/09 09:52:00;;;;;;;4.40;2.88;;;24.90;47.40;;;;;;5502054;26;20106;-62
2024/04/09 09:54:27;;;;;;;5.40;2.63;;;24.90;47.40;;;;;;5502491;26;20006;-62
2024/04/09 09:57:17;;;;;;;3.83;2.30;;;24.80;47.40;;;;;;5501476;26;19998;-62
2024/04/09 09:59:48;;;;;;;3.63;2.40;;;24.80;47.40;;;;;;5495734;26;20412;-62
2024/04/09 10:02:14;;;;;;;3.70;2.20;;;24.80;47.40;;;;;;5502165;26;20049;-62
2024/04/09 10:04:42;;;;;;;3.20;2.20;;;24.80;47.40;;;;;;5498365;26;20010;-62
2024/04/09 10:07:11;;;;;;;3.25;2.10;;;24.80;47.40;;;;;;5499772;26;20465;-62
2024/04/09 10:09:43;;;;;;;3.75;2.30;;;24.80;47.40;;;;;;5504004;26;19997;-63
2024/04/09 10:12:25;;;;;;;3.50;2.42;;;24.80;47.40;;;;;;5502741;26;20334;-62
2024/04/09 10:15:11;;;;;;;3.35;2.10;;;24.80;47.40;;;;;;5499061;26;20012;-62
2024/04/09 10:18:04;;;;;;;3.78;2.38;;;24.80;47.40;;;;;;5502606;26;20013;-62
2024/04/09 10:20:37;;;;;;;3.78;2.28;;;24.80;47.40;;;;;;5498451;26;19998;-63
2024/04/09 10:23:04;;;;;;;3.20;2.10;;;24.80;47.40;;;;;;5500404;26;20013;-63
2024/04/09 10:25:37;;;;;;;3.25;1.95;;;24.80;47.40;;;;;;5501669;26;20010;-62
2024/04/09 10:28:27;;;;;;;3.42;2.25;;;24.80;47.40;;;;;;5499332;26;20040;-62
2024/04/09 10:30:53;;;;;;;3.53;2.13;;;24.80;47.40;;;;;;5498877;26;20005;-63
2024/04/09 10:33:34;;;;;;;3.15;2.38;;;24.80;47.40;;;;;;5501800;26;20335;-62
2024/04/09 10:36:04;;;;;;;3.70;2.55;;;24.80;47.90;;;;;;5501337;26;20323;-62
2024/04/09 10:38:30;;;;;;;2.85;1.85;;;24.80;47.40;;;;;;5498652;26;19997;-62
2024/04/09 10:41:00;;;;;;;3.72;2.30;;;24.80;47.40;;;;;;5503929;26;20345;-64
2024/04/09 10:43:27;;;;;;;2.67;1.73;;;24.80;47.40;;;;;;5497558;26;20037;-64
2024/04/09 10:45:54;;;;;;;3.55;2.25;;;24.80;47.40;;;;;;5492963;26;20021;-64
2024/04/09 10:48:21;;;;;;;3.45;2.00;;;24.80;47.40;;;;;;5498709;26;20450;-64
2024/04/09 10:50:47;;;;;;;2.88;1.95;;;24.80;47.40;;;;;;5501806;26;20072;-62
2024/04/09 10:53:14;;;;;;;3.53;2.00;;;24.80;47.40;;;;;;5501197;26;20009;-62
2024/04/09 10:55:39;;;;;;;3.42;2.00;;;24.80;47.40;;;;;;5502094;26;19998;-61
2024/04/09 10:58:05;;;;;;;4.05;2.20;;;24.80;47.40;;;;;;5498384;26;20036;-62
2024/04/09 11:00:31;;;;;;;3.25;2.25;;;24.80;47.40;;;;;;5497492;26;20387;-64
2024/04/09 11:02:57;;;;;;;3.75;2.42;;;24.80;47.40;;;;;;5502230;26;20074;-64
2024/04/09 11:05:23;;;;;;;3.22;2.13;;;24.80;47.40;;;;;;5497071;26;21091;-64
2024/04/09 11:07:49;;;;;;;2.83;1.80;;;24.80;47.40;;;;;;5501243;26;20009;-64
2024/04/09 11:10:17;;;;;;;3.22;1.83;;;24.80;47.40;;;;;;5503749;26;20359;-63
2024/04/09 11:12:53;;;;;;;3.30;1.92;;;24.80;47.40;;;;;;5498512;26;19997;-63
2024/04/09 11:15:20;;;;;;;3.00;1.88;;;24.80;47.40;;;;;;5499143;26;20356;-63
2024/04/09 11:17:46;;;;;;;3.00;1.95;;;24.80;47.40;;;;;;5498711;26;19998;-63
2024/04/09 11:20:14;;;;;;;4.07;1.90;;;24.80;47.40;;;;;;5501258;26;20336;-66
2024/04/09 11:22:45;;;;;;;3.20;2.00;;;24.80;47.40;;;;;;5500564;26;19993;-63
2024/04/09 11:25:15;;;;;;;3.15;2.10;;;24.80;47.40;;;;;;5529522;25;20349;-63
2024/04/09 11:27:48;;;;;;;3.10;1.80;;;24.80;47.40;;;;;;5501725;26;20145;-63
2024/04/09 11:30:24;;;;;;;2.95;1.90;;;24.80;47.40;;;;;;5498743;26;20992;-63
2024/04/09 11:32:52;;;;;;;3.35;1.80;;;24.80;47.40;;;;;;5498413;26;20050;-63
2024/04/09 11:35:21;;;;;;;2.90;1.73;;;24.80;47.40;;;;;;5494578;26;20510;-64
2024/04/09 11:37:57;;;;;;;3.45;1.83;;;24.80;47.30;;;;;;5502101;26;20105;-63
2024/04/09 11:40:28;;;;;;;2.75;1.75;;;24.80;47.40;;;;;;5499075;26;20015;-63
2024/04/09 11:42:55;;;;;;;4.63;1.98;;;24.80;47.40;;;;;;5499381;26;19998;-63
2024/04/09 11:45:21;;;;;;;2.90;1.67;;;24.80;47.40;;;;;;5494165;26;20030;-64
2024/04/09 11:47:47;;;;;;;2.60;1.80;;;24.80;47.40;;;;;;5500293;26;20447;-64
2024/04/09 11:50:13;;;;;;;3.55;1.90;;;24.80;47.30;;;;;;5500081;26;20349;-64
2024/04/09 11:52:39;;;;;;;3.17;1.77;;;24.80;47.30;;;;;;5501469;26;19997;-64
2024/04/09 11:55:04;;;;;;;2.63;1.75;;;24.80;47.30;;;;;;5499048;26;20009;-64
2024/04/09 11:57:30;;;;;;;2.58;1.67;;;24.80;47.30;;;;;;5501075;26;20017;-64
2024/04/09 11:59:56;;;;;;;2.60;1.63;;;24.70;47.20;;;;;;5498617;26;20077;-64
2024/04/09 12:02:23;;;;;;;2.60;1.83;;;24.80;47.30;;;;;;5500831;26;20062;-64
2024/04/09 12:04:48;;;;;;;2.35;1.40;;;24.80;47.30;;;;;;5502026;26;20004;-64
2024/04/09 12:07:14;;;;;;;3.42;1.70;;;24.80;47.30;;;;;;5500171;26;19994;-64
2024/04/09 12:09:40;;;;;;;2.38;1.60;;;24.70;47.20;;;;;;5501677;26;20002;-64
2024/04/09 12:12:08;;;;;;;3.20;1.70;;;24.70;47.20;;;;;;5498157;26;20032;-64
2024/04/09 12:14:36;;;;;;;2.23;1.50;;;24.80;47.30;;;;;;5500127;26;19993;-64
2024/04/09 12:17:01;;;;;;;2.35;1.40;;;24.70;47.20;;;;;;5499509;26;20001;-64
2024/04/09 12:19:27;;;;;;;2.40;1.45;;;24.80;47.30;;;;;;5501056;26;20005;-64
2024/04/09 12:21:53;;;;;;;1.92;1.35;;;24.80;47.30;;;;;;5496443;26;19997;-64
2024/04/09 12:24:19;;;;;;;2.28;1.40;;;24.80;47.30;;;;;;5499353;26;20368;-64
2024/04/09 12:26:45;;;;;;;2.60;1.58;;;24.70;47.20;;;;;;5497685;26;20011;-64
2024/04/09 12:29:10;;;;;;;2.72;1.67;;;24.70;47.20;;;;;;5498281;26;20002;-64
2024/04/09 12:31:37;;;;;;;2.33;1.40;;;24.70;47.20;;;;;;5495795;26;20074;-64
2024/04/09 12:34:03;;;;;;;2.55;1.65;;;24.70;47.20;;;;;;5467323;26;20010;-64
2024/04/09 12:36:28;;;;;;;1.90;1.30;;;24.70;47.20;;;;;;5498114;26;20006;-64
2024/04/09 12:38:54;;;;;;;2.50;1.50;;;24.70;47.20;;;;;;5497242;26;20034;-64
2024/04/09 12:41:20;;;;;;;2.15;1.40;;;24.70;47.20;;;;;;5500045;26;20040;-64
2024/04/09 12:43:45;;;;;;;2.80;1.50;;;24.70;47.20;;;;;;5494937;26;20353;-64
2024/04/09 12:46:11;;;;;;;3.03;1.65;;;24.70;47.20;;;;;;5495233;26;20009;-64
2024/04/09 12:48:37;;;;;;;2.33;1.30;;;24.70;47.20;;;;;;5500507;26;19998;-64